sensor_id;sensor_type;location;lat;lon;timestamp;P1;durP1;ratioP1;P2;durP2;ratioP2
40827;SDS011;26549;50.918;5.338;2022-08-07T00:00:32;2.25;;;1.50;;
40827;SDS011;26549;50.918;5.338;2022-08-07T00:02:58;5.25;;;1.92;;
40827;SDS011;26549;50.918;5.338;2022-08-07T00:05:24;2.08;;;1.58;;
40827;SDS011;26549;50.918;5.338;2022-08-07T00:07:52;1.42;;;1.13;;
40827;SDS011;26549;50.918;5.338;2022-08-07T00:10:19;1.58;;;1.45;;
40827;SDS011;26549;50.918;5.338;2022-08-07T00:12:47;4.45;;;1.40;;
40827;SDS011;26549;50.918;5.338;2022-08-07T00:15:14;2.83;;;1.50;;
40827;SDS011;26549;50.918;5.338;2022-08-07T00:17:40;3.83;;;1.20;;
40827;SDS011;26549;50.918;5.338;2022-08-07T00:20:06;3.38;;;1.67;;
40827;SDS011;26549;50.918;5.338;2022-08-07T00:22:32;3.13;;;1.23;;
40827;SDS011;26549;50.918;5.338;2022-08-07T00:24:58;5.65;;;1.23;;
40827;SDS011;26549;50.918;5.338;2022-08-07T00:27:24;3.45;;;1.45;;
40827;SDS011;26549;50.918;5.338;2022-08-07T00:29:50;3.00;;;1.40;;
40827;SDS011;26549;50.918;5.338;2022-08-07T00:32:16;1.45;;;1.35;;
40827;SDS011;26549;50.918;5.338;2022-08-07T00:34:43;2.88;;;1.15;;
40827;SDS011;26549;50.918;5.338;2022-08-07T00:37:13;2.13;;;1.40;;
40827;SDS011;26549;50.918;5.338;2022-08-07T00:39:42;3.00;;;1.45;;
40827;SDS011;26549;50.918;5.338;2022-08-07T00:42:08;4.07;;;1.30;;
40827;SDS011;26549;50.918;5.338;2022-08-07T00:44:34;4.03;;;1.20;;
40827;SDS011;26549;50.918;5.338;2022-08-07T00:47:01;4.20;;;1.33;;
40827;SDS011;26549;50.918;5.338;2022-08-07T00:49:31;1.65;;;1.17;;
40827;SDS011;26549;50.918;5.338;2022-08-07T00:51:57;3.67;;;1.20;;
40827;SDS011;26549;50.918;5.338;2022-08-07T00:54:22;2.20;;;1.30;;
40827;SDS011;26549;50.918;5.338;2022-08-07T00:56:48;2.03;;;1.48;;
40827;SDS011;26549;50.918;5.338;2022-08-07T00:59:15;3.47;;;1.35;;
40827;SDS011;26549;50.918;5.338;2022-08-07T01:01:42;1.65;;;1.10;;
40827;SDS011;26549;50.918;5.338;2022-08-07T01:04:09;1.63;;;1.27;;
40827;SDS011;26549;50.918;5.338;2022-08-07T01:06:36;4.03;;;1.52;;
40827;SDS011;26549;50.918;5.338;2022-08-07T01:09:02;1.27;;;1.13;;
40827;SDS011;26549;50.918;5.338;2022-08-07T01:11:30;1.95;;;1.35;;
40827;SDS011;26549;50.918;5.338;2022-08-07T01:13:56;3.75;;;1.52;;
40827;SDS011;26549;50.918;5.338;2022-08-07T01:16:22;2.90;;;1.40;;
40827;SDS011;26549;50.918;5.338;2022-08-07T01:18:47;3.60;;;1.60;;
40827;SDS011;26549;50.918;5.338;2022-08-07T01:21:14;4.95;;;1.88;;
40827;SDS011;26549;50.918;5.338;2022-08-07T01:23:42;2.70;;;1.65;;
40827;SDS011;26549;50.918;5.338;2022-08-07T01:26:11;1.92;;;1.25;;
40827;SDS011;26549;50.918;5.338;2022-08-07T01:28:41;2.67;;;1.52;;
40827;SDS011;26549;50.918;5.338;2022-08-07T01:31:08;4.70;;;1.45;;
40827;SDS011;26549;50.918;5.338;2022-08-07T01:33:35;4.03;;;1.33;;
40827;SDS011;26549;50.918;5.338;2022-08-07T01:36:01;3.03;;;1.38;;
40827;SDS011;26549;50.918;5.338;2022-08-07T01:38:28;3.03;;;1.40;;
40827;SDS011;26549;50.918;5.338;2022-08-07T01:40:59;2.70;;;1.40;;
40827;SDS011;26549;50.918;5.338;2022-08-07T01:43:28;1.70;;;1.40;;
40827;SDS011;26549;50.918;5.338;2022-08-07T01:45:55;1.95;;;1.33;;
40827;SDS011;26549;50.918;5.338;2022-08-07T01:48:21;3.53;;;1.30;;
40827;SDS011;26549;50.918;5.338;2022-08-07T01:50:49;3.08;;;1.30;;
40827;SDS011;26549;50.918;5.338;2022-08-07T01:53:18;1.55;;;1.42;;
40827;SDS011;26549;50.918;5.338;2022-08-07T01:55:51;3.97;;;1.90;;
40827;SDS011;26549;50.918;5.338;2022-08-07T01:58:21;3.20;;;1.50;;
40827;SDS011;26549;50.918;5.338;2022-08-07T02:00:50;2.47;;;1.25;;
40827;SDS011;26549;50.918;5.338;2022-08-07T02:03:20;2.20;;;1.23;;
40827;SDS011;26549;50.918;5.338;2022-08-07T02:05:49;4.75;;;1.70;;
40827;SDS011;26549;50.918;5.338;2022-08-07T02:08:21;3.15;;;1.60;;
40827;SDS011;26549;50.918;5.338;2022-08-07T02:10:50;3.55;;;1.50;;
40827;SDS011;26549;50.918;5.338;2022-08-07T02:13:22;2.72;;;1.63;;
40827;SDS011;26549;50.918;5.338;2022-08-07T02:15:50;1.80;;;1.50;;
40827;SDS011;26549;50.918;5.338;2022-08-07T02:18:18;2.50;;;1.73;;
40827;SDS011;26549;50.918;5.338;2022-08-07T02:20:46;2.25;;;1.52;;
40827;SDS011;26549;50.918;5.338;2022-08-07T02:23:15;3.55;;;1.70;;
40827;SDS011;26549;50.918;5.338;2022-08-07T02:25:42;2.95;;;1.80;;
40827;SDS011;26549;50.918;5.338;2022-08-07T02:28:10;1.95;;;1.65;;
40827;SDS011;26549;50.918;5.338;2022-08-07T02:30:38;2.80;;;1.52;;
40827;SDS011;26549;50.918;5.338;2022-08-07T02:33:06;2.85;;;1.58;;
40827;SDS011;26549;50.918;5.338;2022-08-07T02:35:33;4.00;;;1.52;;
40827;SDS011;26549;50.918;5.338;2022-08-07T02:38:01;1.92;;;1.73;;
40827;SDS011;26549;50.918;5.338;2022-08-07T02:40:29;3.28;;;1.98;;
40827;SDS011;26549;50.918;5.338;2022-08-07T02:42:57;3.58;;;1.52;;
40827;SDS011;26549;50.918;5.338;2022-08-07T02:45:24;1.95;;;1.85;;
40827;SDS011;26549;50.918;5.338;2022-08-07T02:47:52;2.55;;;1.63;;
40827;SDS011;26549;50.918;5.338;2022-08-07T02:50:18;1.90;;;1.58;;
40827;SDS011;26549;50.918;5.338;2022-08-07T02:53:05;3.58;;;1.45;;
40827;SDS011;26549;50.918;5.338;2022-08-07T02:55:35;3.40;;;1.83;;
40827;SDS011;26549;50.918;5.338;2022-08-07T02:58:09;2.65;;;1.63;;
40827;SDS011;26549;50.918;5.338;2022-08-07T03:00:37;2.53;;;1.83;;
40827;SDS011;26549;50.918;5.338;2022-08-07T03:03:06;2.95;;;2.13;;
40827;SDS011;26549;50.918;5.338;2022-08-07T03:05:33;3.70;;;1.48;;
40827;SDS011;26549;50.918;5.338;2022-08-07T03:08:01;3.20;;;1.77;;
40827;SDS011;26549;50.918;5.338;2022-08-07T03:10:30;2.88;;;2.20;;
40827;SDS011;26549;50.918;5.338;2022-08-07T03:12:56;3.95;;;2.05;;
40827;SDS011;26549;50.918;5.338;2022-08-07T03:15:23;2.50;;;1.50;;
40827;SDS011;26549;50.918;5.338;2022-08-07T03:17:49;3.10;;;1.67;;
40827;SDS011;26549;50.918;5.338;2022-08-07T03:20:16;4.22;;;2.17;;
40827;SDS011;26549;50.918;5.338;2022-08-07T03:22:42;2.70;;;2.17;;
40827;SDS011;26549;50.918;5.338;2022-08-07T03:25:08;3.05;;;1.67;;
40827;SDS011;26549;50.918;5.338;2022-08-07T03:27:34;2.67;;;1.65;;
40827;SDS011;26549;50.918;5.338;2022-08-07T03:30:01;2.50;;;2.10;;
40827;SDS011;26549;50.918;5.338;2022-08-07T03:32:32;2.90;;;1.88;;
40827;SDS011;26549;50.918;5.338;2022-08-07T03:35:01;2.63;;;2.22;;
40827;SDS011;26549;50.918;5.338;2022-08-07T03:37:29;3.38;;;2.45;;
40827;SDS011;26549;50.918;5.338;2022-08-07T03:39:57;4.18;;;2.70;;
40827;SDS011;26549;50.918;5.338;2022-08-07T03:42:23;2.85;;;2.00;;
40827;SDS011;26549;50.918;5.338;2022-08-07T03:44:50;4.45;;;2.08;;
40827;SDS011;26549;50.918;5.338;2022-08-07T03:47:16;2.67;;;2.15;;
40827;SDS011;26549;50.918;5.338;2022-08-07T03:49:43;2.00;;;1.67;;
40827;SDS011;26549;50.918;5.338;2022-08-07T03:52:09;3.88;;;2.00;;
40827;SDS011;26549;50.918;5.338;2022-08-07T03:54:36;3.53;;;1.92;;
40827;SDS011;26549;50.918;5.338;2022-08-07T03:57:03;7.57;;;2.42;;
40827;SDS011;26549;50.918;5.338;2022-08-07T03:59:30;2.78;;;1.90;;
40827;SDS011;26549;50.918;5.338;2022-08-07T04:01:57;4.80;;;2.78;;
40827;SDS011;26549;50.918;5.338;2022-08-07T04:04:23;2.83;;;2.25;;
40827;SDS011;26549;50.918;5.338;2022-08-07T04:06:50;3.15;;;2.08;;
40827;SDS011;26549;50.918;5.338;2022-08-07T04:09:16;2.60;;;1.85;;
40827;SDS011;26549;50.918;5.338;2022-08-07T04:11:44;3.78;;;2.33;;
40827;SDS011;26549;50.918;5.338;2022-08-07T04:14:11;3.15;;;2.30;;
40827;SDS011;26549;50.918;5.338;2022-08-07T04:16:38;3.13;;;2.25;;
40827;SDS011;26549;50.918;5.338;2022-08-07T04:19:08;3.42;;;2.13;;
40827;SDS011;26549;50.918;5.338;2022-08-07T04:21:35;3.85;;;2.58;;
40827;SDS011;26549;50.918;5.338;2022-08-07T04:24:01;5.88;;;2.25;;
40827;SDS011;26549;50.918;5.338;2022-08-07T04:26:28;5.53;;;2.47;;
40827;SDS011;26549;50.918;5.338;2022-08-07T04:28:54;5.57;;;2.38;;
40827;SDS011;26549;50.918;5.338;2022-08-07T04:31:21;4.00;;;2.05;;
40827;SDS011;26549;50.918;5.338;2022-08-07T04:33:48;3.17;;;2.45;;
40827;SDS011;26549;50.918;5.338;2022-08-07T04:36:14;2.60;;;2.40;;
40827;SDS011;26549;50.918;5.338;2022-08-07T04:38:40;3.78;;;2.05;;
40827;SDS011;26549;50.918;5.338;2022-08-07T04:41:06;4.25;;;3.15;;
40827;SDS011;26549;50.918;5.338;2022-08-07T04:43:35;3.92;;;2.22;;
40827;SDS011;26549;50.918;5.338;2022-08-07T04:46:06;4.70;;;2.88;;
40827;SDS011;26549;50.918;5.338;2022-08-07T04:48:58;4.35;;;2.40;;
40827;SDS011;26549;50.918;5.338;2022-08-07T04:54:02;3.75;;;2.35;;
40827;SDS011;26549;50.918;5.338;2022-08-07T04:59:14;3.10;;;2.35;;
40827;SDS011;26549;50.918;5.338;2022-08-07T05:07:25;2.53;;;1.95;;
40827;SDS011;26549;50.918;5.338;2022-08-07T05:12:47;4.93;;;2.55;;
40827;SDS011;26549;50.918;5.338;2022-08-07T05:15:21;5.85;;;2.38;;
40827;SDS011;26549;50.918;5.338;2022-08-07T05:17:55;3.60;;;2.35;;
40827;SDS011;26549;50.918;5.338;2022-08-07T05:20:26;5.07;;;2.80;;
40827;SDS011;26549;50.918;5.338;2022-08-07T05:23:04;4.03;;;2.78;;
40827;SDS011;26549;50.918;5.338;2022-08-07T05:25:35;5.32;;;3.38;;
40827;SDS011;26549;50.918;5.338;2022-08-07T05:28:04;5.20;;;3.05;;
40827;SDS011;26549;50.918;5.338;2022-08-07T05:30:33;3.72;;;2.92;;
40827;SDS011;26549;50.918;5.338;2022-08-07T05:33:01;5.07;;;2.80;;
40827;SDS011;26549;50.918;5.338;2022-08-07T05:35:32;5.45;;;3.80;;
40827;SDS011;26549;50.918;5.338;2022-08-07T05:38:01;4.75;;;3.75;;
40827;SDS011;26549;50.918;5.338;2022-08-07T05:40:30;5.10;;;3.03;;
40827;SDS011;26549;50.918;5.338;2022-08-07T05:42:56;4.00;;;3.00;;
40827;SDS011;26549;50.918;5.338;2022-08-07T05:45:23;4.85;;;3.05;;
40827;SDS011;26549;50.918;5.338;2022-08-07T05:47:51;3.00;;;2.70;;
40827;SDS011;26549;50.918;5.338;2022-08-07T05:50:17;5.63;;;4.00;;
40827;SDS011;26549;50.918;5.338;2022-08-07T05:52:44;5.65;;;3.28;;
40827;SDS011;26549;50.918;5.338;2022-08-07T05:55:09;5.40;;;3.33;;
40827;SDS011;26549;50.918;5.338;2022-08-07T05:57:35;7.30;;;3.47;;
40827;SDS011;26549;50.918;5.338;2022-08-07T06:00:03;6.95;;;3.25;;
40827;SDS011;26549;50.918;5.338;2022-08-07T06:02:32;4.60;;;2.65;;
40827;SDS011;26549;50.918;5.338;2022-08-07T06:05:04;5.93;;;3.00;;
40827;SDS011;26549;50.918;5.338;2022-08-07T06:07:32;3.85;;;3.35;;
40827;SDS011;26549;50.918;5.338;2022-08-07T06:09:59;4.07;;;3.03;;
40827;SDS011;26549;50.918;5.338;2022-08-07T06:12:27;3.72;;;2.70;;
40827;SDS011;26549;50.918;5.338;2022-08-07T06:14:54;5.10;;;2.90;;
40827;SDS011;26549;50.918;5.338;2022-08-07T06:17:21;5.65;;;3.13;;
40827;SDS011;26549;50.918;5.338;2022-08-07T06:19:48;4.18;;;2.90;;
40827;SDS011;26549;50.918;5.338;2022-08-07T06:22:15;3.13;;;2.70;;
40827;SDS011;26549;50.918;5.338;2022-08-07T06:24:42;5.32;;;3.05;;
40827;SDS011;26549;50.918;5.338;2022-08-07T06:27:08;4.45;;;3.38;;
40827;SDS011;26549;50.918;5.338;2022-08-07T06:29:35;4.47;;;3.25;;
40827;SDS011;26549;50.918;5.338;2022-08-07T06:32:02;3.92;;;3.28;;
40827;SDS011;26549;50.918;5.338;2022-08-07T06:34:28;7.82;;;3.40;;
40827;SDS011;26549;50.918;5.338;2022-08-07T06:36:54;4.75;;;3.33;;
40827;SDS011;26549;50.918;5.338;2022-08-07T06:39:20;4.10;;;3.25;;
40827;SDS011;26549;50.918;5.338;2022-08-07T06:41:55;4.57;;;3.45;;
40827;SDS011;26549;50.918;5.338;2022-08-07T06:44:27;5.07;;;3.95;;
40827;SDS011;26549;50.918;5.338;2022-08-07T06:46:54;3.75;;;3.28;;
40827;SDS011;26549;50.918;5.338;2022-08-07T06:49:20;6.95;;;3.40;;
40827;SDS011;26549;50.918;5.338;2022-08-07T06:51:50;3.58;;;3.03;;
40827;SDS011;26549;50.918;5.338;2022-08-07T06:54:18;6.30;;;3.33;;
40827;SDS011;26549;50.918;5.338;2022-08-07T06:56:47;7.53;;;3.70;;
40827;SDS011;26549;50.918;5.338;2022-08-07T06:59:16;3.85;;;2.88;;
40827;SDS011;26549;50.918;5.338;2022-08-07T07:01:52;6.47;;;3.30;;
40827;SDS011;26549;50.918;5.338;2022-08-07T07:04:21;6.13;;;4.05;;
40827;SDS011;26549;50.918;5.338;2022-08-07T07:06:47;4.75;;;3.05;;
40827;SDS011;26549;50.918;5.338;2022-08-07T07:09:17;8.65;;;3.78;;
40827;SDS011;26549;50.918;5.338;2022-08-07T07:11:53;4.32;;;3.28;;
40827;SDS011;26549;50.918;5.338;2022-08-07T07:14:26;4.95;;;3.63;;
40827;SDS011;26549;50.918;5.338;2022-08-07T07:16:57;3.80;;;3.17;;
40827;SDS011;26549;50.918;5.338;2022-08-07T07:19:28;6.60;;;4.05;;
40827;SDS011;26549;50.918;5.338;2022-08-07T07:21:58;5.68;;;3.10;;
40827;SDS011;26549;50.918;5.338;2022-08-07T07:24:24;5.85;;;3.10;;
40827;SDS011;26549;50.918;5.338;2022-08-07T07:26:53;5.85;;;3.40;;
40827;SDS011;26549;50.918;5.338;2022-08-07T07:29:24;5.15;;;3.17;;
40827;SDS011;26549;50.918;5.338;2022-08-07T07:31:54;6.75;;;3.53;;
40827;SDS011;26549;50.918;5.338;2022-08-07T07:34:22;3.40;;;2.53;;
40827;SDS011;26549;50.918;5.338;2022-08-07T07:36:52;5.40;;;3.00;;
40827;SDS011;26549;50.918;5.338;2022-08-07T07:39:21;5.15;;;2.97;;
40827;SDS011;26549;50.918;5.338;2022-08-07T07:41:49;8.82;;;4.70;;
40827;SDS011;26549;50.918;5.338;2022-08-07T07:44:15;5.60;;;3.13;;
40827;SDS011;26549;50.918;5.338;2022-08-07T07:46:45;4.45;;;2.63;;
40827;SDS011;26549;50.918;5.338;2022-08-07T07:49:14;6.00;;;3.28;;
40827;SDS011;26549;50.918;5.338;2022-08-07T07:51:43;4.40;;;3.20;;
40827;SDS011;26549;50.918;5.338;2022-08-07T07:54:11;4.43;;;2.63;;
40827;SDS011;26549;50.918;5.338;2022-08-07T07:56:39;4.72;;;2.97;;
40827;SDS011;26549;50.918;5.338;2022-08-07T07:59:06;6.20;;;2.92;;
40827;SDS011;26549;50.918;5.338;2022-08-07T08:01:36;5.53;;;3.00;;
40827;SDS011;26549;50.918;5.338;2022-08-07T08:04:05;5.18;;;2.90;;
40827;SDS011;26549;50.918;5.338;2022-08-07T08:06:33;6.90;;;3.38;;
40827;SDS011;26549;50.918;5.338;2022-08-07T08:09:01;4.47;;;2.92;;
40827;SDS011;26549;50.918;5.338;2022-08-07T08:11:28;3.42;;;2.92;;
40827;SDS011;26549;50.918;5.338;2022-08-07T08:13:55;4.38;;;3.08;;
40827;SDS011;26549;50.918;5.338;2022-08-07T08:16:34;4.43;;;2.92;;
40827;SDS011;26549;50.918;5.338;2022-08-07T08:19:07;4.85;;;2.47;;
40827;SDS011;26549;50.918;5.338;2022-08-07T08:21:36;6.45;;;2.88;;
40827;SDS011;26549;50.918;5.338;2022-08-07T08:24:23;4.22;;;2.60;;
40827;SDS011;26549;50.918;5.338;2022-08-07T08:27:11;7.50;;;2.92;;
40827;SDS011;26549;50.918;5.338;2022-08-07T08:29:42;3.90;;;2.45;;
40827;SDS011;26549;50.918;5.338;2022-08-07T08:32:16;4.30;;;3.83;;
40827;SDS011;26549;50.918;5.338;2022-08-07T08:34:45;5.63;;;3.40;;
40827;SDS011;26549;50.918;5.338;2022-08-07T08:37:13;6.07;;;2.33;;
40827;SDS011;26549;50.918;5.338;2022-08-07T08:39:44;8.20;;;2.53;;
40827;SDS011;26549;50.918;5.338;2022-08-07T08:45:01;5.00;;;2.13;;
40827;SDS011;26549;50.918;5.338;2022-08-07T08:47:47;4.13;;;2.45;;
40827;SDS011;26549;50.918;5.338;2022-08-07T08:50:28;3.25;;;2.15;;
40827;SDS011;26549;50.918;5.338;2022-08-07T08:53:01;3.55;;;1.63;;
40827;SDS011;26549;50.918;5.338;2022-08-07T08:58:16;4.70;;;1.83;;
40827;SDS011;26549;50.918;5.338;2022-08-07T09:01:23;2.47;;;1.30;;
40827;SDS011;26549;50.918;5.338;2022-08-07T09:09:48;2.92;;;1.48;;
40827;SDS011;26549;50.918;5.338;2022-08-07T09:18:18;1.98;;;1.55;;
40827;SDS011;26549;50.918;5.338;2022-08-07T09:32:24;3.92;;;1.08;;
40827;SDS011;26549;50.918;5.338;2022-08-07T09:35:24;3.63;;;1.02;;
40827;SDS011;26549;50.918;5.338;2022-08-07T09:52:30;3.50;;;0.70;;
40827;SDS011;26549;50.918;5.338;2022-08-07T10:01:05;4.32;;;0.90;;
40827;SDS011;26549;50.918;5.338;2022-08-07T10:10:05;2.63;;;1.00;;
40827;SDS011;26549;50.918;5.338;2022-08-07T10:15:22;2.38;;;0.80;;
40827;SDS011;26549;50.918;5.338;2022-08-07T10:18:19;2.08;;;0.50;;
40827;SDS011;26549;50.918;5.338;2022-08-07T10:35:52;1.50;;;0.60;;
40827;SDS011;26549;50.918;5.338;2022-08-07T10:38:51;2.15;;;0.90;;
40827;SDS011;26549;50.918;5.338;2022-08-07T10:41:45;1.13;;;0.63;;
40827;SDS011;26549;50.918;5.338;2022-08-07T10:44:26;4.95;;;0.70;;
40827;SDS011;26549;50.918;5.338;2022-08-07T10:47:00;2.20;;;0.75;;
40827;SDS011;26549;50.918;5.338;2022-08-07T10:52:37;3.10;;;0.80;;
40827;SDS011;26549;50.918;5.338;2022-08-07T11:00:54;1.27;;;0.50;;
40827;SDS011;26549;50.918;5.338;2022-08-07T11:04:16;0.80;;;0.60;;
40827;SDS011;26549;50.918;5.338;2022-08-07T11:09:35;1.00;;;0.45;;
40827;SDS011;26549;50.918;5.338;2022-08-07T11:12:16;2.28;;;0.60;;
40827;SDS011;26549;50.918;5.338;2022-08-07T11:14:53;1.00;;;0.55;;
40827;SDS011;26549;50.918;5.338;2022-08-07T11:17:34;3.20;;;1.10;;
40827;SDS011;26549;50.918;5.338;2022-08-07T11:20:18;0.70;;;0.60;;
40827;SDS011;26549;50.918;5.338;2022-08-07T11:22:54;1.15;;;0.57;;
40827;SDS011;26549;50.918;5.338;2022-08-07T11:25:33;3.00;;;0.65;;
40827;SDS011;26549;50.918;5.338;2022-08-07T11:30:55;2.20;;;0.50;;
40827;SDS011;26549;50.918;5.338;2022-08-07T11:33:33;0.82;;;0.70;;
40827;SDS011;26549;50.918;5.338;2022-08-07T11:36:29;1.58;;;0.60;;
40827;SDS011;26549;50.918;5.338;2022-08-07T11:39:24;1.02;;;0.60;;
40827;SDS011;26549;50.918;5.338;2022-08-07T11:42:12;1.67;;;0.70;;
40827;SDS011;26549;50.918;5.338;2022-08-07T11:44:57;1.13;;;0.63;;
40827;SDS011;26549;50.918;5.338;2022-08-07T11:50:36;0.55;;;0.50;;
40827;SDS011;26549;50.918;5.338;2022-08-07T11:56:33;2.20;;;0.70;;
40827;SDS011;26549;50.918;5.338;2022-08-07T12:02:11;1.25;;;0.60;;
40827;SDS011;26549;50.918;5.338;2022-08-07T12:07:26;2.30;;;0.65;;
40827;SDS011;26549;50.918;5.338;2022-08-07T12:10:08;1.38;;;0.52;;
40827;SDS011;26549;50.918;5.338;2022-08-07T12:12:52;0.95;;;0.52;;
40827;SDS011;26549;50.918;5.338;2022-08-07T12:15:31;2.30;;;0.77;;
40827;SDS011;26549;50.918;5.338;2022-08-07T12:21:01;2.35;;;0.90;;
40827;SDS011;26549;50.918;5.338;2022-08-07T12:24:00;1.88;;;0.70;;
40827;SDS011;26549;50.918;5.338;2022-08-07T12:26:37;1.00;;;0.60;;
40827;SDS011;26549;50.918;5.338;2022-08-07T12:29:25;1.57;;;0.67;;
40827;SDS011;26549;50.918;5.338;2022-08-07T12:34:35;1.15;;;0.60;;
40827;SDS011;26549;50.918;5.338;2022-08-07T12:37:03;1.17;;;0.70;;
40827;SDS011;26549;50.918;5.338;2022-08-07T12:39:30;1.23;;;0.88;;
40827;SDS011;26549;50.918;5.338;2022-08-07T12:41:58;4.30;;;0.93;;
40827;SDS011;26549;50.918;5.338;2022-08-07T12:44:25;1.55;;;1.00;;
40827;SDS011;26549;50.918;5.338;2022-08-07T12:58:03;1.65;;;0.52;;
40827;SDS011;26549;50.918;5.338;2022-08-07T13:06:25;1.98;;;0.40;;
40827;SDS011;26549;50.918;5.338;2022-08-07T13:08:58;1.60;;;0.68;;
40827;SDS011;26549;50.918;5.338;2022-08-07T13:11:48;2.03;;;0.65;;
40827;SDS011;26549;50.918;5.338;2022-08-07T13:14:30;1.65;;;0.52;;
40827;SDS011;26549;50.918;5.338;2022-08-07T13:17:03;2.40;;;0.45;;
40827;SDS011;26549;50.918;5.338;2022-08-07T13:22:33;1.20;;;0.70;;
40827;SDS011;26549;50.918;5.338;2022-08-07T13:25:05;3.75;;;0.90;;
40827;SDS011;26549;50.918;5.338;2022-08-07T13:27:43;2.35;;;0.90;;
40827;SDS011;26549;50.918;5.338;2022-08-07T13:30:16;1.63;;;0.68;;
40827;SDS011;26549;50.918;5.338;2022-08-07T13:33:00;1.35;;;0.70;;
40827;SDS011;26549;50.918;5.338;2022-08-07T13:35:49;2.08;;;0.90;;
40827;SDS011;26549;50.918;5.338;2022-08-07T13:38:27;4.03;;;0.70;;
40827;SDS011;26549;50.918;5.338;2022-08-07T13:43:40;0.70;;;0.40;;
40827;SDS011;26549;50.918;5.338;2022-08-07T13:46:09;0.85;;;0.73;;
40827;SDS011;26549;50.918;5.338;2022-08-07T13:48:37;0.90;;;0.57;;
40827;SDS011;26549;50.918;5.338;2022-08-07T13:51:04;1.00;;;0.50;;
40827;SDS011;26549;50.918;5.338;2022-08-07T13:53:35;0.73;;;0.52;;
40827;SDS011;26549;50.918;5.338;2022-08-07T13:56:04;1.33;;;0.70;;
40827;SDS011;26549;50.918;5.338;2022-08-07T13:58:38;1.27;;;0.90;;
40827;SDS011;26549;50.918;5.338;2022-08-07T14:01:31;2.45;;;0.60;;
40827;SDS011;26549;50.918;5.338;2022-08-07T14:04:23;2.70;;;0.70;;
40827;SDS011;26549;50.918;5.338;2022-08-07T14:06:51;2.20;;;0.60;;
40827;SDS011;26549;50.918;5.338;2022-08-07T14:11:52;0.98;;;0.50;;
40827;SDS011;26549;50.918;5.338;2022-08-07T14:14:25;1.45;;;0.75;;
40827;SDS011;26549;50.918;5.338;2022-08-07T14:16:55;1.35;;;0.88;;
40827;SDS011;26549;50.918;5.338;2022-08-07T14:19:58;0.77;;;0.50;;
40827;SDS011;26549;50.918;5.338;2022-08-07T14:22:28;1.92;;;0.75;;
40827;SDS011;26549;50.918;5.338;2022-08-07T14:25:06;3.15;;;0.60;;
40827;SDS011;26549;50.918;5.338;2022-08-07T14:27:36;0.82;;;0.80;;
40827;SDS011;26549;50.918;5.338;2022-08-07T14:30:14;2.67;;;0.70;;
40827;SDS011;26549;50.918;5.338;2022-08-07T14:35:18;0.95;;;0.73;;
40827;SDS011;26549;50.918;5.338;2022-08-07T14:37:46;1.17;;;0.60;;
40827;SDS011;26549;50.918;5.338;2022-08-07T14:40:17;2.05;;;0.80;;
40827;SDS011;26549;50.918;5.338;2022-08-07T14:42:51;0.98;;;0.80;;
40827;SDS011;26549;50.918;5.338;2022-08-07T14:45:26;1.65;;;0.68;;
40827;SDS011;26549;50.918;5.338;2022-08-07T14:47:54;2.70;;;0.57;;
40827;SDS011;26549;50.918;5.338;2022-08-07T14:50:21;2.08;;;0.70;;
40827;SDS011;26549;50.918;5.338;2022-08-07T14:52:50;1.83;;;0.60;;
40827;SDS011;26549;50.918;5.338;2022-08-07T14:55:18;1.38;;;0.65;;
40827;SDS011;26549;50.918;5.338;2022-08-07T14:57:45;0.95;;;0.60;;
40827;SDS011;26549;50.918;5.338;2022-08-07T15:00:15;1.58;;;0.60;;
40827;SDS011;26549;50.918;5.338;2022-08-07T15:02:45;2.00;;;0.60;;
40827;SDS011;26549;50.918;5.338;2022-08-07T15:05:15;2.38;;;0.52;;
40827;SDS011;26549;50.918;5.338;2022-08-07T15:07:42;1.23;;;0.77;;
40827;SDS011;26549;50.918;5.338;2022-08-07T15:10:15;1.15;;;0.70;;
40827;SDS011;26549;50.918;5.338;2022-08-07T15:12:42;0.70;;;0.70;;
40827;SDS011;26549;50.918;5.338;2022-08-07T15:15:10;1.50;;;0.70;;
40827;SDS011;26549;50.918;5.338;2022-08-07T15:17:43;3.75;;;1.27;;
40827;SDS011;26549;50.918;5.338;2022-08-07T15:20:16;1.52;;;0.60;;
40827;SDS011;26549;50.918;5.338;2022-08-07T15:22:49;2.67;;;1.08;;
40827;SDS011;26549;50.918;5.338;2022-08-07T15:25:22;1.65;;;0.82;;
40827;SDS011;26549;50.918;5.338;2022-08-07T15:27:55;2.05;;;0.70;;
40827;SDS011;26549;50.918;5.338;2022-08-07T15:30:25;1.88;;;0.70;;
40827;SDS011;26549;50.918;5.338;2022-08-07T15:32:53;1.52;;;0.73;;
40827;SDS011;26549;50.918;5.338;2022-08-07T15:35:22;0.93;;;0.70;;
40827;SDS011;26549;50.918;5.338;2022-08-07T15:37:50;1.35;;;0.95;;
40827;SDS011;26549;50.918;5.338;2022-08-07T15:40:19;0.82;;;0.70;;
40827;SDS011;26549;50.918;5.338;2022-08-07T15:43:22;2.90;;;0.70;;
40827;SDS011;26549;50.918;5.338;2022-08-07T15:45:41;1.85;;;0.63;;
40827;SDS011;26549;50.918;5.338;2022-08-07T15:50:41;3.00;;;0.80;;
40827;SDS011;26549;50.918;5.338;2022-08-07T15:53:16;1.95;;;0.70;;
40827;SDS011;26549;50.918;5.338;2022-08-07T15:55:59;1.45;;;0.73;;
40827;SDS011;26549;50.918;5.338;2022-08-07T15:58:38;3.17;;;0.73;;
40827;SDS011;26549;50.918;5.338;2022-08-07T16:01:22;2.55;;;1.25;;
40827;SDS011;26549;50.918;5.338;2022-08-07T16:03:52;1.13;;;1.00;;
40827;SDS011;26549;50.918;5.338;2022-08-07T16:06:30;7.00;;;1.48;;
40827;SDS011;26549;50.918;5.338;2022-08-07T16:09:03;1.67;;;0.90;;
40827;SDS011;26549;50.918;5.338;2022-08-07T16:11:59;1.52;;;0.85;;
40827;SDS011;26549;50.918;5.338;2022-08-07T16:14:50;2.03;;;0.70;;
40827;SDS011;26549;50.918;5.338;2022-08-07T16:17:46;2.20;;;1.13;;
40827;SDS011;26549;50.918;5.338;2022-08-07T16:21:11;3.40;;;1.63;;
40827;SDS011;26549;50.918;5.338;2022-08-07T16:26:41;1.38;;;0.90;;
40827;SDS011;26549;50.918;5.338;2022-08-07T16:29:25;2.38;;;1.10;;
40827;SDS011;26549;50.918;5.338;2022-08-07T16:32:09;1.35;;;1.10;;
40827;SDS011;26549;50.918;5.338;2022-08-07T16:48:15;2.03;;;0.98;;
40827;SDS011;26549;50.918;5.338;2022-08-07T16:57:00;1.27;;;1.10;;
40827;SDS011;26549;50.918;5.338;2022-08-07T16:59:50;1.85;;;1.10;;
40827;SDS011;26549;50.918;5.338;2022-08-07T17:08:08;1.65;;;1.42;;
40827;SDS011;26549;50.918;5.338;2022-08-07T17:10:40;3.15;;;1.02;;
40827;SDS011;26549;50.918;5.338;2022-08-07T17:15:56;3.25;;;1.73;;
40827;SDS011;26549;50.918;5.338;2022-08-07T17:21:14;1.45;;;0.90;;
40827;SDS011;26549;50.918;5.338;2022-08-07T17:26:43;3.45;;;1.10;;
40827;SDS011;26549;50.918;5.338;2022-08-07T17:32:20;1.77;;;0.98;;
40827;SDS011;26549;50.918;5.338;2022-08-07T17:34:53;3.45;;;1.15;;
40827;SDS011;26549;50.918;5.338;2022-08-07T17:37:34;6.63;;;1.45;;
40827;SDS011;26549;50.918;5.338;2022-08-07T17:40:13;2.53;;;1.20;;
40827;SDS011;26549;50.918;5.338;2022-08-07T17:42:50;1.23;;;0.90;;
40827;SDS011;26549;50.918;5.338;2022-08-07T17:45:26;1.40;;;1.30;;
40827;SDS011;26549;50.918;5.338;2022-08-07T17:48:05;1.58;;;1.48;;
40827;SDS011;26549;50.918;5.338;2022-08-07T17:50:47;1.50;;;1.10;;
40827;SDS011;26549;50.918;5.338;2022-08-07T17:56:20;2.30;;;1.00;;
40827;SDS011;26549;50.918;5.338;2022-08-07T18:01:20;2.40;;;1.00;;
40827;SDS011;26549;50.918;5.338;2022-08-07T18:06:51;0.85;;;0.80;;
40827;SDS011;26549;50.918;5.338;2022-08-07T18:09:39;2.30;;;0.95;;
40827;SDS011;26549;50.918;5.338;2022-08-07T18:20:04;1.42;;;0.90;;
40827;SDS011;26549;50.918;5.338;2022-08-07T18:22:35;1.60;;;1.15;;
40827;SDS011;26549;50.918;5.338;2022-08-07T18:25:22;1.45;;;0.93;;
40827;SDS011;26549;50.918;5.338;2022-08-07T18:28:11;2.13;;;1.08;;
40827;SDS011;26549;50.918;5.338;2022-08-07T18:36:20;2.70;;;1.13;;
40827;SDS011;26549;50.918;5.338;2022-08-07T18:39:06;1.50;;;1.40;;
40827;SDS011;26549;50.918;5.338;2022-08-07T18:47:42;1.40;;;1.13;;
40827;SDS011;26549;50.918;5.338;2022-08-07T18:50:32;2.22;;;1.17;;
40827;SDS011;26549;50.918;5.338;2022-08-07T18:56:00;5.50;;;1.20;;
40827;SDS011;26549;50.918;5.338;2022-08-07T19:03:59;3.35;;;1.10;;